Norwegian Gem — C6VG8 — position and weather

sailwx.info

Track history (hours):
 
Tides and Currents Weather Stations Pressure Air Temp Water Temp Dewpoint Dewpoint Depression Visibility Wind Speed Wind Dir Waves Ship Positions

Norwegian Gem (Bahamas)

Last reported at 2017-May-29 12:00 UTC. Time now 2017-May-29 17:00 UTC.
Position N 28°54' W 079°48'.

Length 294 m; draft 8.6 m.

Type: Ship. MMSI: 309951000.

Wind from 320 at 23 knots

Barometer 1016.0 mb
Air temperature 26.0 ° C
Visibility: greater than 10.8 NM
Dewpoint 21.5 ° C
Water temperature 29.0 ° C

Date/timePositionNaut miles runAvg speedWind from/ knotsBaromVisibWave heightAir tempDewpointWater temp
2017-May-29 12:00N 28°54' W 079°48'2928.7 320 / 231016.010.8 26.021.529.0
2017-May-29 11:00N 29°18' W 079°30'11919.5 310 / 201016.010.8 26.019.928.0
2017-May-29 04:53N 31°06' W 078°32'4523.8
2017-May-29 03:00N 31°48' W 078°12'4715.6 240 / 271014.010.8 27.024.128.0
2017-May-29 00:00N 32°30' W 077°48'2120.6 250 / 211011.027.0 26.019.928.0
2017-May-28 23:00N 32°48' W 077°36'8718.7 250 / 221011.010.8 26.019.926.0
2017-May-28 18:21N 33°60' W 076°37'918.6
2017-May-28 17:50N 34°06' W 076°29'618.6
2017-May-28 17:30N 34°11' W 076°24'918.4
2017-May-28 17:00N 34°17' W 076°16'918.6
2017-May-28 16:30N 34°23' W 076°07'1019.1
2017-May-28 16:00N 34°28' W 075°57'1019.3
2017-May-28 15:30N 34°34' W 075°48'1019.3
2017-May-28 15:00N 34°41' W 075°40'1514.7
2017-May-28 14:00N 34°48' W 075°24'1040.7 270 / 161012.010.8 24.021.029.0
2017-May-28 13:45N 34°57' W 075°20'417.7
2017-May-28 13:31N 34°60' W 075°16'816.9
2017-May-28 13:00N 35°07' W 075°09'917.5
2017-May-28 12:30N 35°15' W 075°06'1019.1
2017-May-28 12:00N 35°24' W 075°03'7534.1
2017-May-28 12:00N 35°18' W 075°00'1632.0 260 / 201010.0 5.4 23.019.927.0
2017-May-28 11:30N 35°33' W 074°58'15821.1
2017-May-28 04:01N 38°07' W 074°13'021.3
2017-May-28 04:00N 38°07' W 074°13'1021.0
2017-May-28 03:30N 38°17' W 074°10'1020.8
2017-May-28 03:00N 38°28' W 074°07'1220.8
2017-May-28 02:27N 38°39' W 074°05'510.6
2017-May-28 02:00N 38°42' W 074°00'3324.6 170 / 71012.010.8 16.012.417.0
2017-May-28 00:39N 39°15' W 073°57'620.1
2017-May-28 00:22N 39°21' W 073°56'719.9
2017-May-28 00:00N 39°28' W 073°55'1019.7
2017-May-27 23:30N 39°37' W 073°53'1019.7
2017-May-27 22:59N 39°48' W 073°52'1119.9
2017-May-27 22:27N 39°58' W 073°50'1219.9
2017-May-27 21:50N 40°11' W 073°49'820.1
2017-May-27 21:25N 40°19' W 073°49'818.1
2017-May-27 20:59N 40°27' W 073°50'715.9
2017-May-27 20:31N 40°31' W 073°58'817.0
2017-May-27 20:01N 40°38' W 074°03'612.9
2017-May-27 19:30N 40°44' W 074°01'2 3.5
2017-May-27 18:58N 40°46' W 073°60'0 0.0
2017-May-27 18:27N 40°46' W 073°60'0 0.0
2017-May-27 18:00N 40°46' W 073°60'0 0.0
2017-May-27 17:30N 40°46' W 073°60'0 0.0
2017-May-27 17:00N 40°46' W 073°60'0 0.0
2017-May-27 16:30N 40°46' W 073°60'0 0.0
2017-May-27 15:59N 40°46' W 073°60'0 0.0
2017-May-27 15:29N 40°46' W 073°60'0 0.0
2017-May-27 14:59N 40°46' W 073°60'0 0.0
2017-May-27 14:29N 40°46' W 073°60'0 0.0
2017-May-27 13:28N 40°46' W 073°60'0 0.0
2017-May-27 12:58N 40°46' W 073°60'0 0.0
2017-May-27 12:28N 40°46' W 073°60'0 0.0
2017-May-27 11:58N 40°46' W 073°60'0 0.3
2017-May-27 11:30N 40°46' W 074°00'2 4.6
2017-May-27 11:00N 40°44' W 074°01'612.1
2017-May-27 10:30N 40°38' W 074°03'714.7
2017-May-27 10:00N 40°31' W 073°60'715.0
2017-May-27 09:30N 40°28' W 073°51'4 8.6
2017-May-27 09:00N 40°25' W 073°47'714.4
2017-May-27 08:30N 40°18' W 073°46'2314.3
2017-May-27 06:52N 39°54' W 073°43'714.4
2017-May-27 06:25N 39°48' W 073°42'614.4
2017-May-27 05:58N 39°41' W 073°42'1014.3
2017-May-27 05:18N 39°32' W 073°43'5015.1
2017-May-27 02:00N 38°42' W 073°42'13817.3 280 / 341010.010.8 17.013.518.0
2017-May-26 18:00N 36°24' W 073°54'7017.6 260 / 201010.027.0 20.111.922.0
2017-May-26 14:00N 35°18' W 074°24'3015.2 270 / 411011.010.8 22.0 6.427.0
2017-May-26 12:00N 34°48' W 074°30'16016.0 280 / 441011.010.8 23.0 5.127.0
2017-May-26 02:00N 32°18' W 075°36'6215.5 270 / 341012.010.8 24.021.026.0
2017-May-25 22:00N 31°18' W 075°54'4514.9 250 / 281009.0 24.0 9.426.0
2017-May-25 19:00N 30°36' W 076°12'8517.1 260 / 251009.010.8 23.018.329.0
2017-May-25 14:00N 29°12' W 076°30'3015.0 200 / 251011.0 2.2 26.018.229.0
2017-May-25 12:00N 28°42' W 076°30'3015.0 200 / 221011.0 2.2 25.022.029.0
2017-May-25 10:00N 28°12' W 076°30'7017.4 200 / 161011.010.8 26.016.426.0
2017-May-25 05:57N 27°03' W 076°45'817.4
2017-May-25 05:30N 26°55' W 076°46'816.9
2017-May-25 05:00N 26°47' W 076°48'816.8
2017-May-25 04:30N 26°39' W 076°49'816.1
2017-May-25 04:00N 26°31' W 076°50'816.4
2017-May-25 03:30N 26°23' W 076°51'816.5
2017-May-25 03:00N 26°15' W 076°53'816.8
2017-May-25 02:30N 26°07' W 076°57'816.5
2017-May-25 02:00N 25°59' W 077°00'816.3
2017-May-25 01:30N 25°52' W 077°03'1116.8
2017-May-25 00:53N 25°42' W 077°07'617.0
2017-May-25 00:30N 25°36' W 077°10'15 0.9
2017-May-24 06:43N 25°22' W 077°17'2 8.3
2017-May-24 06:30N 25°22' W 077°15'16 4.6
2017-May-24 03:00N 25°36' W 077°24'30 2.3 180 / 201016.010.8 26.023.129.0
2017-May-23 14:00N 25°48' W 077°54'16 8.1 160 / 101017.010.8 27.017.631.0
2017-May-23 12:00N 26°00' W 078°06'17719.6 190 / 221016.0 5.4 25.017.029.0
2017-May-23 03:00N 28°12' W 080°18'20 5.0 190 / 211015.027.0 25.018.827.0
2017-May-22 23:00N 28°24' W 080°36'0 0.0 180 / 191014.027.0 26.019.129.0
2017-May-22 22:00N 28°24' W 080°36'20 2.5 170 / 231014.027.0 26.017.629.0
2017-May-22 14:00N 28°32' W 080°15'815.7
2017-May-22 13:28N 28°38' W 080°08'1014.5
2017-May-22 12:47N 28°45' W 080°01'1114.2
2017-May-22 12:00N 28°48' W 079°48'18018.0 190 / 131013.0 5.4 25.018.829.0
2017-May-22 02:00N 31°30' W 078°18'7123.6 150 / 161024.010.8 24.021.027.0
2017-May-21 23:00N 32°36' W 077°48'6421.5 220 / 101019.0 25.015.127.0
2017-May-21 20:00N 33°30' W 077°06'7519.2 060 / 101021.027.0 24.017.728.0
2017-May-21 16:05N 34°25' W 076°05'221.1
2017-May-21 16:00N 34°26' W 076°03'1420.9
2017-May-21 15:19N 34°35' W 075°49'62188.1
2017-May-21 15:00N 35°36' W 075°42'3912.9 350 / 251023.0 5.4 21.016.125.0
2017-May-21 12:00N 35°18' W 075°00'7523.4 360 / 161023.0 2.2 20.016.724.0
2017-May-21 08:46N 36°32' W 074°39'820.9
2017-May-21 08:22N 36°40' W 074°37'820.5
2017-May-21 08:00N 36°47' W 074°35'1020.2
2017-May-21 07:30N 36°57' W 074°33'1020.5
2017-May-21 07:00N 37°07' W 074°30'1120.9
2017-May-21 06:29N 37°18' W 074°27'1020.6
2017-May-21 06:00N 37°27' W 074°25'2320.6
2017-May-21 04:53N 37°50' W 074°19'2220.8
2017-May-21 03:49N 38°11' W 074°12'821.1
2017-May-21 03:25N 38°19' W 074°09'920.9
2017-May-21 03:00N 38°28' W 074°07'1120.9
2017-May-21 02:28N 38°39' W 074°05'1020.8
2017-May-21 02:00N 38°48' W 074°03'1120.7
2017-May-21 01:28N 38°60' W 074°01'920.8
2017-May-21 01:00N 39°09' W 073°59'1020.5
2017-May-21 00:30N 39°19' W 073°56'1020.5
2017-May-21 00:00N 39°29' W 073°54'1020.5
2017-May-20 23:30N 39°39' W 073°52'1020.2
2017-May-20 23:00N 39°49' W 073°51'1020.1
2017-May-20 22:30N 39°59' W 073°51'1020.0
2017-May-20 22:00N 40°09' W 073°50'1020.2
2017-May-20 21:30N 40°19' W 073°49'816.3
2017-May-20 21:00N 40°27' W 073°51'917.9
2017-May-20 20:30N 40°32' W 074°01'816.5
2017-May-20 20:00N 40°40' W 074°03'611.9
2017-May-20 19:30N 40°46' W 074°01'1 1.4
2017-May-20 19:01N 40°46' W 073°60'0 0.0
2017-May-20 18:29N 40°46' W 073°60'0 0.0
2017-May-20 17:59N 40°46' W 073°60'0 0.0
2017-May-20 17:29N 40°46' W 073°60'0 0.0
2017-May-20 16:59N 40°46' W 073°60'0 0.0
2017-May-20 16:28N 40°46' W 073°60'0 0.0
2017-May-20 15:55N 40°46' W 073°60'0 0.0
2017-May-20 15:28N 40°46' W 073°60'0 0.0
2017-May-20 14:58N 40°46' W 073°60'0 0.0
2017-May-20 14:00N 40°46' W 073°60'0 0.0
2017-May-20 13:30N 40°46' W 073°60'0 0.0
2017-May-20 13:00N 40°46' W 073°60'0 0.0
2017-May-20 12:30N 40°46' W 073°60'0 0.0
2017-May-20 11:59N 40°46' W 073°60'0 0.0
2017-May-20 11:29N 40°46' W 073°60'0 0.0
2017-May-20 11:01N 40°46' W 073°60'1 1.4
2017-May-20 10:31N 40°46' W 074°01'510.6
2017-May-20 10:00N 40°40' W 074°02'713.9
2017-May-20 09:30N 40°34' W 074°02'714.0
2017-May-20 09:00N 40°29' W 073°55'612.7
2017-May-20 08:30N 40°25' W 073°48'713.3
2017-May-20 07:59N 40°19' W 073°46'1113.4
2017-May-20 07:08N 40°07' W 073°45'614.1
2017-May-20 06:44N 40°02' W 073°44'414.1
2017-May-20 06:28N 39°58' W 073°44'613.6
2017-May-20 06:00N 39°52' W 073°43'713.2
2017-May-20 05:29N 39°45' W 073°42'613.2
2017-May-20 05:00N 39°39' W 073°42'612.8
2017-May-20 04:30N 39°32' W 073°43'713.3
2017-May-20 04:00N 39°25' W 073°43'813.3
2017-May-20 03:25N 39°18' W 073°44'2416.6
2017-May-20 02:00N 38°54' W 073°42'8414.0 230 / 221016.010.8 21.017.817.0
2017-May-19 20:00N 37°30' W 073°48'12816.0 230 / 211016.010.8 21.014.615.0
2017-May-19 12:00N 35°24' W 074°18'   250 / 261021.010.8 24.013.927.0
Track history (hours):
 
Tides and Currents Weather Stations Pressure Air Temp Water Temp Dewpoint Dewpoint Depression Visibility Wind Speed Wind Dir Waves Ship Positions

Norwegian Gem (Bahamas)

Last reported at 2017-May-29 12:00 UTC. Time now 2017-May-29 17:00 UTC.
Position N 28°54' W 079°48'.

Length 294 m; draft 8.6 m.

Type: Ship. MMSI: 309951000.

Wind from 320 at 23 knots

Barometer 1016.0 mb
Air temperature 26.0 ° C
Visibility: greater than 10.8 NM
Dewpoint 21.5 ° C
Water temperature 29.0 ° C

Date/timePositionNaut miles runAvg speedWind from/ knotsBaromVisibWave heightAir tempDewpointWater temp
2017-May-29 12:00N 28°54' W 079°48'2928.7 320 / 231016.010.8 26.021.529.0
2017-May-29 11:00N 29°18' W 079°30'11919.5 310 / 201016.010.8 26.019.928.0
2017-May-29 04:53N 31°06' W 078°32'4523.8
2017-May-29 03:00N 31°48' W 078°12'4715.6 240 / 271014.010.8 27.024.128.0
2017-May-29 00:00N 32°30' W 077°48'2120.6 250 / 211011.027.0 26.019.928.0
2017-May-28 23:00N 32°48' W 077°36'8718.7 250 / 221011.010.8 26.019.926.0
2017-May-28 18:21N 33°60' W 076°37'918.6
2017-May-28 17:50N 34°06' W 076°29'618.6
2017-May-28 17:30N 34°11' W 076°24'918.4
2017-May-28 17:00N 34°17' W 076°16'918.6
2017-May-28 16:30N 34°23' W 076°07'1019.1
2017-May-28 16:00N 34°28' W 075°57'1019.3
2017-May-28 15:30N 34°34' W 075°48'1019.3
2017-May-28 15:00N 34°41' W 075°40'1514.7
2017-May-28 14:00N 34°48' W 075°24'1040.7 270 / 161012.010.8 24.021.029.0
2017-May-28 13:45N 34°57' W 075°20'417.7
2017-May-28 13:31N 34°60' W 075°16'816.9
2017-May-28 13:00N 35°07' W 075°09'917.5
2017-May-28 12:30N 35°15' W 075°06'1019.1
2017-May-28 12:00N 35°24' W 075°03'7534.1
2017-May-28 12:00N 35°18' W 075°00'1632.0 260 / 201010.0 5.4 23.019.927.0
2017-May-28 11:30N 35°33' W 074°58'15821.1
2017-May-28 04:01N 38°07' W 074°13'021.3
2017-May-28 04:00N 38°07' W 074°13'1021.0
2017-May-28 03:30N 38°17' W 074°10'1020.8
2017-May-28 03:00N 38°28' W 074°07'1220.8
2017-May-28 02:27N 38°39' W 074°05'510.6
2017-May-28 02:00N 38°42' W 074°00'3324.6 170 / 71012.010.8 16.012.417.0
2017-May-28 00:39N 39°15' W 073°57'620.1
2017-May-28 00:22N 39°21' W 073°56'719.9
2017-May-28 00:00N 39°28' W 073°55'1019.7
2017-May-27 23:30N 39°37' W 073°53'1019.7
2017-May-27 22:59N 39°48' W 073°52'1119.9
2017-May-27 22:27N 39°58' W 073°50'1219.9
2017-May-27 21:50N 40°11' W 073°49'820.1
2017-May-27 21:25N 40°19' W 073°49'818.1
2017-May-27 20:59N 40°27' W 073°50'715.9
2017-May-27 20:31N 40°31' W 073°58'817.0
2017-May-27 20:01N 40°38' W 074°03'612.9
2017-May-27 19:30N 40°44' W 074°01'2 3.5
2017-May-27 18:58N 40°46' W 073°60'0 0.0
2017-May-27 18:27N 40°46' W 073°60'0 0.0
2017-May-27 18:00N 40°46' W 073°60'0 0.0
2017-May-27 17:30N 40°46' W 073°60'0 0.0
2017-May-27 17:00N 40°46' W 073°60'0 0.0
2017-May-27 16:30N 40°46' W 073°60'0 0.0
2017-May-27 15:59N 40°46' W 073°60'0 0.0
2017-May-27 15:29N 40°46' W 073°60'0 0.0
2017-May-27 14:59N 40°46' W 073°60'0 0.0
2017-May-27 14:29N 40°46' W 073°60'0 0.0
2017-May-27 13:28N 40°46' W 073°60'0 0.0
2017-May-27 12:58N 40°46' W 073°60'0 0.0
2017-May-27 12:28N 40°46' W 073°60'0 0.0
2017-May-27 11:58N 40°46' W 073°60'0 0.3
2017-May-27 11:30N 40°46' W 074°00'2 4.6
2017-May-27 11:00N 40°44' W 074°01'612.1
2017-May-27 10:30N 40°38' W 074°03'714.7
2017-May-27 10:00N 40°31' W 073°60'715.0
2017-May-27 09:30N 40°28' W 073°51'4 8.6
2017-May-27 09:00N 40°25' W 073°47'714.4
2017-May-27 08:30N 40°18' W 073°46'2314.3
2017-May-27 06:52N 39°54' W 073°43'714.4
2017-May-27 06:25N 39°48' W 073°42'614.4
2017-May-27 05:58N 39°41' W 073°42'1014.3
2017-May-27 05:18N 39°32' W 073°43'5015.1
2017-May-27 02:00N 38°42' W 073°42'13817.3 280 / 341010.010.8 17.013.518.0
2017-May-26 18:00N 36°24' W 073°54'7017.6 260 / 201010.027.0 20.111.922.0
2017-May-26 14:00N 35°18' W 074°24'3015.2 270 / 411011.010.8 22.0 6.427.0
2017-May-26 12:00N 34°48' W 074°30'16016.0 280 / 441011.010.8 23.0 5.127.0
2017-May-26 02:00N 32°18' W 075°36'6215.5 270 / 341012.010.8 24.021.026.0
2017-May-25 22:00N 31°18' W 075°54'4514.9 250 / 281009.0 24.0 9.426.0
2017-May-25 19:00N 30°36' W 076°12'8517.1 260 / 251009.010.8 23.018.329.0
2017-May-25 14:00N 29°12' W 076°30'3015.0 200 / 251011.0 2.2 26.018.229.0
2017-May-25 12:00N 28°42' W 076°30'3015.0 200 / 221011.0 2.2 25.022.029.0
2017-May-25 10:00N 28°12' W 076°30'7017.4 200 / 161011.010.8 26.016.426.0
2017-May-25 05:57N 27°03' W 076°45'817.4
2017-May-25 05:30N 26°55' W 076°46'816.9
2017-May-25 05:00N 26°47' W 076°48'816.8
2017-May-25 04:30N 26°39' W 076°49'816.1
2017-May-25 04:00N 26°31' W 076°50'816.4
2017-May-25 03:30N 26°23' W 076°51'816.5
2017-May-25 03:00N 26°15' W 076°53'816.8
2017-May-25 02:30N 26°07' W 076°57'816.5
2017-May-25 02:00N 25°59' W 077°00'816.3
2017-May-25 01:30N 25°52' W 077°03'1116.8
2017-May-25 00:53N 25°42' W 077°07'617.0
2017-May-25 00:30N 25°36' W 077°10'15 0.9
2017-May-24 06:43N 25°22' W 077°17'2 8.3
2017-May-24 06:30N 25°22' W 077°15'16 4.6
2017-May-24 03:00N 25°36' W 077°24'30 2.3 180 / 201016.010.8 26.023.129.0
2017-May-23 14:00N 25°48' W 077°54'16 8.1 160 / 101017.010.8 27.017.631.0
2017-May-23 12:00N 26°00' W 078°06'17719.6 190 / 221016.0 5.4 25.017.029.0
2017-May-23 03:00N 28°12' W 080°18'20 5.0 190 / 211015.027.0 25.018.827.0
2017-May-22 23:00N 28°24' W 080°36'0 0.0 180 / 191014.027.0 26.019.129.0
2017-May-22 22:00N 28°24' W 080°36'20 2.5 170 / 231014.027.0 26.017.629.0
2017-May-22 14:00N 28°32' W 080°15'815.7
2017-May-22 13:28N 28°38' W 080°08'1014.5
2017-May-22 12:47N 28°45' W 080°01'1114.2
2017-May-22 12:00N 28°48' W 079°48'18018.0 190 / 131013.0 5.4 25.018.829.0
2017-May-22 02:00N 31°30' W 078°18'7123.6 150 / 161024.010.8 24.021.027.0
2017-May-21 23:00N 32°36' W 077°48'6421.5 220 / 101019.0 25.015.127.0
2017-May-21 20:00N 33°30' W 077°06'7519.2 060 / 101021.027.0 24.017.728.0
2017-May-21 16:05N 34°25' W 076°05'221.1
2017-May-21 16:00N 34°26' W 076°03'1420.9
2017-May-21 15:19N 34°35' W 075°49'62188.1
2017-May-21 15:00N 35°36' W 075°42'3912.9 350 / 251023.0 5.4 21.016.125.0
2017-May-21 12:00N 35°18' W 075°00'7523.4 360 / 161023.0 2.2 20.016.724.0
2017-May-21 08:46N 36°32' W 074°39'820.9
2017-May-21 08:22N 36°40' W 074°37'820.5
2017-May-21 08:00N 36°47' W 074°35'1020.2
2017-May-21 07:30N 36°57' W 074°33'1020.5
2017-May-21 07:00N 37°07' W 074°30'1120.9
2017-May-21 06:29N 37°18' W 074°27'1020.6
2017-May-21 06:00N 37°27' W 074°25'2320.6
2017-May-21 04:53N 37°50' W 074°19'2220.8
2017-May-21 03:49N 38°11' W 074°12'821.1
2017-May-21 03:25N 38°19' W 074°09'920.9
2017-May-21 03:00N 38°28' W 074°07'1120.9
2017-May-21 02:28N 38°39' W 074°05'1020.8
2017-May-21 02:00N 38°48' W 074°03'1120.7
2017-May-21 01:28N 38°60' W 074°01'920.8
2017-May-21 01:00N 39°09' W 073°59'1020.5
2017-May-21 00:30N 39°19' W 073°56'1020.5
2017-May-21 00:00N 39°29' W 073°54'1020.5
2017-May-20 23:30N 39°39' W 073°52'1020.2
2017-May-20 23:00N 39°49' W 073°51'1020.1
2017-May-20 22:30N 39°59' W 073°51'1020.0
2017-May-20 22:00N 40°09' W 073°50'1020.2
2017-May-20 21:30N 40°19' W 073°49'816.3
2017-May-20 21:00N 40°27' W 073°51'917.9
2017-May-20 20:30N 40°32' W 074°01'816.5
2017-May-20 20:00N 40°40' W 074°03'611.9
2017-May-20 19:30N 40°46' W 074°01'1 1.4
2017-May-20 19:01N 40°46' W 073°60'0 0.0
2017-May-20 18:29N 40°46' W 073°60'0 0.0
2017-May-20 17:59N 40°46' W 073°60'0 0.0
2017-May-20 17:29N 40°46' W 073°60'0 0.0
2017-May-20 16:59N 40°46' W 073°60'0 0.0
2017-May-20 16:28N 40°46' W 073°60'0 0.0
2017-May-20 15:55N 40°46' W 073°60'0 0.0
2017-May-20 15:28N 40°46' W 073°60'0 0.0
2017-May-20 14:58N 40°46' W 073°60'0 0.0
2017-May-20 14:00N 40°46' W 073°60'0 0.0
2017-May-20 13:30N 40°46' W 073°60'0 0.0
2017-May-20 13:00N 40°46' W 073°60'0 0.0
2017-May-20 12:30N 40°46' W 073°60'0 0.0
2017-May-20 11:59N 40°46' W 073°60'0 0.0
2017-May-20 11:29N 40°46' W 073°60'0 0.0
2017-May-20 11:01N 40°46' W 073°60'1 1.4
2017-May-20 10:31N 40°46' W 074°01'510.6
2017-May-20 10:00N 40°40' W 074°02'713.9
2017-May-20 09:30N 40°34' W 074°02'714.0
2017-May-20 09:00N 40°29' W 073°55'612.7
2017-May-20 08:30N 40°25' W 073°48'713.3
2017-May-20 07:59N 40°19' W 073°46'1113.4
2017-May-20 07:08N 40°07' W 073°45'614.1
2017-May-20 06:44N 40°02' W 073°44'414.1
2017-May-20 06:28N 39°58' W 073°44'613.6
2017-May-20 06:00N 39°52' W 073°43'713.2
2017-May-20 05:29N 39°45' W 073°42'613.2
2017-May-20 05:00N 39°39' W 073°42'612.8
2017-May-20 04:30N 39°32' W 073°43'713.3
2017-May-20 04:00N 39°25' W 073°43'813.3
2017-May-20 03:25N 39°18' W 073°44'2416.6
2017-May-20 02:00N 38°54' W 073°42'8414.0 230 / 221016.010.8 21.017.817.0
2017-May-19 20:00N 37°30' W 073°48'12816.0 230 / 211016.010.8 21.014.615.0
2017-May-19 12:00N 35°24' W 074°18'   250 / 261021.010.8 24.013.927.0

Dump ship's entire track history